Time;durP1;ratioP1;P1;durP2;ratioP2;P2;SDS_P1;SDS_P2;PMS_P1;PMS_P2;Temp;Humidity;BMP_temperature;BMP_pressure;BME280_temperature;BME280_humidity;BME280_pressure;Samples;Min_cycle;Max_cycle;Signal;HPM_P1;HPM_P2
2021/03/27 00:01:34;;;;;;;;;;;5.60;92.30;;;;;;4996904;28;92971;-67
2021/03/27 00:04:09;;;;;;;;;;;5.60;92.20;;;;;;4995225;28;92166;-67
2021/03/27 00:06:43;;;;;;;;;;;5.60;92.30;;;;;;4996643;28;92801;-67
2021/03/27 00:09:14;;;;;;;;;;;5.50;92.20;;;;;;4994387;28;93266;-67
2021/03/27 00:11:46;;;;;;;;;;;5.50;92.20;;;;;;4997421;28;92182;-67
2021/03/27 00:14:16;;;;;;;;;;;5.50;92.20;;;;;;4995890;28;92939;-67
2021/03/27 00:16:55;;;;;;;;;;;5.50;92.30;;;;;;4995124;28;93015;-67
2021/03/27 00:19:35;;;;;;;;;;;5.50;92.00;;;;;;4982892;28;92234;-67
2021/03/27 00:22:03;;;;;;;;;;;5.50;92.20;;;;;;4975107;28;94873;-67
2021/03/27 00:24:29;;;;;;;;;;;5.50;92.10;;;;;;4976012;28;92225;-67
2021/03/27 00:26:58;;;;;;;;;;;5.50;92.20;;;;;;4977101;28;92991;-67
2021/03/27 00:29:26;;;;;;;;;;;5.50;92.10;;;;;;4972718;28;93224;-68
2021/03/27 00:32:03;;;;;;;;;;;5.40;92.20;;;;;;4977756;28;92403;-67
2021/03/27 00:34:35;;;;;;;;;;;5.50;92.20;;;;;;4975309;28;92383;-67
2021/03/27 00:37:01;;;;;;;;;;;5.40;92.00;;;;;;4972903;28;92755;-67
2021/03/27 00:39:53;;;;;;;;;;;5.40;92.10;;;;;;4976050;28;92629;-67
2021/03/27 00:42:18;;;;;;;;;;;5.40;92.10;;;;;;4974513;28;93894;-67
2021/03/27 00:44:56;;;;;;;;;;;5.40;92.10;;;;;;4978976;28;93700;-67
2021/03/27 00:47:26;;;;;;;;;;;5.40;92.10;;;;;;4976700;28;93115;-67
2021/03/27 00:50:07;;;;;;;;;;;5.40;92.20;;;;;;4973738;28;94740;-67
2021/03/27 00:52:37;;;;;;;;;;;5.30;92.10;;;;;;4974101;28;93113;-67
2021/03/27 00:55:02;;;;;;;;;;;5.40;92.10;;;;;;4975088;28;93917;-67
2021/03/27 00:57:31;;;;;;;;;;;5.40;92.00;;;;;;4977029;28;93144;-67
2021/03/27 01:00:08;;;;;;;;;;;5.30;92.10;;;;;;4974698;28;92222;-67
2021/03/27 01:02:40;;;;;;;;;;;5.30;92.10;;;;;;4973384;28;92986;-67
2021/03/27 01:05:08;;;;;;;;;;;5.30;92.10;;;;;;4979174;28;92801;-67
2021/03/27 01:07:33;;;;;;;;;;;5.30;92.10;;;;;;4974883;28;92243;-67
2021/03/27 01:10:21;;;;;;;;;;;5.30;92.00;;;;;;4974282;28;93089;-67
2021/03/27 01:12:47;;;;;;;;;;;5.30;91.90;;;;;;4971708;28;93229;-67
2021/03/27 01:15:18;;;;;;;;;;;5.30;91.90;;;;;;4975066;28;93626;-67
2021/03/27 01:17:48;;;;;;;;;;;5.30;92.00;;;;;;4971986;28;93122;-67
2021/03/27 01:20:25;;;;;;;;;;;5.30;91.90;;;;;;4992030;28;92302;-67
2021/03/27 01:22:51;;;;;;;;;;;5.30;92.00;;;;;;4996803;28;92267;-67
2021/03/27 01:25:22;;;;;;;;;;;5.20;91.90;;;;;;4995557;28;92651;-67
2021/03/27 01:27:53;;;;;;;;;;;5.20;92.00;;;;;;4999576;28;92249;-67
2021/03/27 01:30:29;;;;;;;;;;;5.20;91.90;;;;;;4995916;28;93245;-67
2021/03/27 01:33:11;;;;;;;;;;;5.20;91.90;;;;;;4996508;28;92190;-67
2021/03/27 01:35:45;;;;;;;;;;;5.20;91.90;;;;;;4993570;28;92251;-67
2021/03/27 01:38:40;;;;;;;;;;;5.20;91.90;;;;;;4994138;28;93718;-67
2021/03/27 01:41:24;;;;;;;;;;;5.10;92.00;;;;;;4943646;28;92258;-67
2021/03/27 01:44:08;;;;;;;;;;;5.20;91.90;;;;;;4999256;28;92776;-67
2021/03/27 01:46:52;;;;;;;;;;;5.10;91.90;;;;;;4997994;28;93976;-67
2021/03/27 01:49:17;;;;;;;;;;;5.10;91.90;;;;;;4997067;28;92219;-67
2021/03/27 01:51:52;;;;;;;;;;;5.10;91.90;;;;;;5000111;28;92195;-67
2021/03/27 01:54:20;;;;;;;;;;;5.10;91.90;;;;;;4999282;28;92203;-67
2021/03/27 01:57:01;;;;;;;;;;;5.10;91.90;;;;;;4997508;28;92151;-67
2021/03/27 01:59:30;;;;;;;;;;;5.10;91.90;;;;;;4997631;28;92813;-67
2021/03/27 02:02:03;;;;;;;;;;;5.10;92.00;;;;;;4998898;28;92966;-67
2021/03/27 02:04:49;;;;;;;;;;;5.00;91.90;;;;;;4997457;28;93122;-67
2021/03/27 02:07:18;;;;;;;;;;;5.10;91.90;;;;;;4996052;28;95254;-67
2021/03/27 02:09:57;;;;;;;;;;;5.00;91.90;;;;;;4997699;28;92187;-67
2021/03/27 02:12:29;;;;;;;;;;;5.00;91.80;;;;;;4997193;28;93722;-67
2021/03/27 02:14:58;;;;;;;;;;;5.00;91.80;;;;;;5001509;28;92739;-67
2021/03/27 02:17:32;;;;;;;;;;;5.00;91.90;;;;;;4996497;28;93769;-67
2021/03/27 02:20:13;;;;;;;;;;;4.90;91.70;;;;;;4994042;28;96163;-67
2021/03/27 02:22:59;;;;;;;;;;;4.90;91.70;;;;;;4995155;28;91479;-67
2021/03/27 02:25:43;;;;;;;;;;;5.00;91.80;;;;;;4994463;28;92211;-67
2021/03/27 02:28:15;;;;;;;;;;;4.90;91.80;;;;;;4995104;28;93206;-67
2021/03/27 02:30:52;;;;;;;;;;;4.90;91.70;;;;;;4994374;28;93125;-67
2021/03/27 02:33:20;;;;;;;;;;;4.90;91.70;;;;;;4998367;28;93972;-67
2021/03/27 02:36:04;;;;;;;;;;;4.90;91.80;;;;;;4996005;28;92998;-67
2021/03/27 02:38:48;;;;;;;;;;;4.90;91.70;;;;;;5001302;28;92904;-67
2021/03/27 02:41:23;;;;;;;;;;;4.90;91.80;;;;;;4995287;28;93197;-67
2021/03/27 02:43:56;;;;;;;;;;;4.90;91.70;;;;;;4998583;28;92226;-67
2021/03/27 02:46:37;;;;;;;;;;;4.90;91.80;;;;;;4994504;28;92511;-67
2021/03/27 02:49:20;;;;;;;;;;;4.80;91.70;;;;;;4994985;28;93003;-67
2021/03/27 02:51:52;;;;;;;;;;;4.90;91.70;;;;;;4997706;28;92212;-67
2021/03/27 02:54:28;;;;;;;;;;;4.80;91.70;;;;;;4996088;28;92445;-67
2021/03/27 02:57:07;;;;;;;;;;;4.80;91.50;;;;;;4994268;28;94020;-67
2021/03/27 02:59:32;;;;;;;;;;;4.80;91.70;;;;;;4997464;28;92239;-67
2021/03/27 03:02:16;;;;;;;;;;;4.80;91.60;;;;;;4999878;28;92266;-67
2021/03/27 03:04:45;;;;;;;;;;;4.80;91.70;;;;;;4994214;28;93625;-67
2021/03/27 03:07:29;;;;;;;;;;;4.70;91.80;;;;;;4995281;28;92419;-67
2021/03/27 03:09:58;;;;;;;;;;;4.70;91.70;;;;;;4997450;28;93424;-67
2021/03/27 03:12:34;;;;;;;;;;;4.70;91.70;;;;;;4994844;28;92217;-67
2021/03/27 03:15:18;;;;;;;;;;;4.70;91.70;;;;;;4994483;28;94474;-67
2021/03/27 03:17:46;;;;;;;;;;;4.70;91.60;;;;;;4995903;28;93197;-67
2021/03/27 03:20:17;;;;;;;;;;;4.70;91.70;;;;;;4994732;28;92219;-67
2021/03/27 03:22:49;;;;;;;;;;;4.70;91.60;;;;;;4996615;28;93213;-67
2021/03/27 03:25:17;;;;;;;;;;;4.70;91.70;;;;;;4995755;28;93059;-67
2021/03/27 03:27:52;;;;;;;;;;;4.70;91.70;;;;;;4997794;28;92252;-67
2021/03/27 03:30:26;;;;;;;;;;;4.70;91.60;;;;;;4993707;28;93207;-67
2021/03/27 03:33:06;;;;;;;;;;;4.60;91.60;;;;;;4996517;28;92213;-67
2021/03/27 03:35:42;;;;;;;;;;;4.60;91.60;;;;;;4997776;28;92194;-67
2021/03/27 03:38:26;;;;;;;;;;;4.60;91.70;;;;;;4995772;28;93454;-67
2021/03/27 03:41:09;;;;;;;;;;;4.60;91.50;;;;;;4994529;28;91453;-67
2021/03/27 03:43:47;;;;;;;;;;;4.60;91.90;;;;;;4996167;28;92299;-67
2021/03/27 03:46:21;;;;;;;;;;;4.60;91.60;;;;;;4996559;28;93888;-67
2021/03/27 03:48:50;;;;;;;;;;;4.60;91.60;;;;;;4994374;28;93221;-67
2021/03/27 03:51:34;;;;;;;;;;;4.50;91.50;;;;;;4996622;28;93169;-67
2021/03/27 03:54:08;;;;;;;;;;;4.50;91.50;;;;;;4993526;28;92260;-67
2021/03/27 03:56:56;;;;;;;;;;;4.50;91.50;;;;;;4995586;28;92538;-67
2021/03/27 03:59:31;;;;;;;;;;;4.50;91.50;;;;;;4988381;28;92251;-67
2021/03/27 04:02:19;;;;;;;;;;;4.50;91.60;;;;;;4993504;28;92208;-67
2021/03/27 04:04:48;;;;;;;;;;;4.50;91.50;;;;;;4989571;28;92219;-67
2021/03/27 04:07:33;;;;;;;;;;;4.50;91.50;;;;;;4995643;28;92655;-67
2021/03/27 04:10:03;;;;;;;;;;;4.50;91.60;;;;;;4999192;28;92263;-67
2021/03/27 04:12:41;;;;;;;;;;;4.40;91.60;;;;;;4996628;28;92771;-67
2021/03/27 04:15:25;;;;;;;;;;;4.50;91.50;;;;;;4993798;28;93221;-67
2021/03/27 04:17:57;;;;;;;;;;;4.40;91.60;;;;;;4996952;28;93116;-67
2021/03/27 04:20:29;;;;;;;;;;;4.40;91.50;;;;;;4996055;28;92666;-67
2021/03/27 04:23:00;;;;;;;;;;;4.40;91.60;;;;;;4993354;28;92213;-67
2021/03/27 04:25:26;;;;;;;;;;;4.40;91.40;;;;;;4995882;28;93760;-67
2021/03/27 04:28:11;;;;;;;;;;;4.40;91.40;;;;;;4992585;28;92713;-67
2021/03/27 04:30:47;;;;;;;;;;;4.40;91.30;;;;;;4994790;28;92162;-67
2021/03/27 04:33:31;;;;;;;;;;;4.40;91.50;;;;;;4997213;28;91680;-67
2021/03/27 04:35:59;;;;;;;;;;;4.30;91.50;;;;;;4996843;28;92186;-67
2021/03/27 04:38:37;;;;;;;;;;;4.40;91.50;;;;;;4995247;28;92335;-67
2021/03/27 04:41:19;;;;;;;;;;;4.30;91.40;;;;;;4995070;28;94794;-67
2021/03/27 04:43:47;;;;;;;;;;;4.30;91.40;;;;;;4995569;28;92206;-67
2021/03/27 04:46:19;;;;;;;;;;;4.30;91.40;;;;;;4997417;28;92811;-67
2021/03/27 04:48:57;;;;;;;;;;;4.30;91.40;;;;;;4994551;28;92326;-67
2021/03/27 04:51:23;;;;;;;;;;;4.30;91.40;;;;;;4994641;28;92291;-67
2021/03/27 04:53:48;;;;;;;;;;;4.30;91.40;;;;;;4992902;28;92519;-67
2021/03/27 04:56:32;;;;;;;;;;;4.30;91.30;;;;;;4994969;28;93777;-67
2021/03/27 04:59:18;;;;;;;;;;;4.20;91.20;;;;;;4995011;28;91936;-67
2021/03/27 05:01:44;;;;;;;;;;;4.20;91.30;;;;;;4962977;28;93250;-67
2021/03/27 05:04:14;;;;;;;;;;;4.20;91.40;;;;;;4995268;28;92718;-67
2021/03/27 05:06:41;;;;;;;;;;;4.20;91.30;;;;;;4994849;28;93125;-67
2021/03/27 05:09:16;;;;;;;;;;;4.20;91.40;;;;;;4993440;28;93077;-67
2021/03/27 05:12:08;;;;;;;;;;;4.20;91.30;;;;;;4995345;28;92164;-67
2021/03/27 05:14:52;;;;;;;;;;;4.20;91.40;;;;;;4972967;28;93493;-67
2021/03/27 05:17:26;;;;;;;;;;;4.20;91.40;;;;;;4998825;28;93485;-67
2021/03/27 05:20:06;;;;;;;;;;;4.20;91.40;;;;;;5000580;28;93744;-67
2021/03/27 05:22:45;;;;;;;;;;;4.20;91.20;;;;;;4996572;28;93679;-67
2021/03/27 05:25:14;;;;;;;;;;;4.20;91.30;;;;;;5000834;28;91518;-67
2021/03/27 05:27:39;;;;;;;;;;;4.10;91.20;;;;;;4996575;28;92199;-67
2021/03/27 05:30:19;;;;;;;;;;;4.10;91.40;;;;;;4997020;28;94520;-67
2021/03/27 05:33:04;;;;;;;;;;;4.10;91.30;;;;;;4999484;28;94692;-67
2021/03/27 05:35:30;;;;;;;;;;;4.10;91.30;;;;;;4968913;28;93621;-67
2021/03/27 05:38:04;;;;;;;;;;;4.10;91.30;;;;;;4996678;28;93599;-67
2021/03/27 05:40:38;;;;;;;;;;;4.10;91.30;;;;;;5001601;28;92146;-67
2021/03/27 05:43:16;;;;;;;;;;;4.10;91.20;;;;;;4997705;28;93190;-67
2021/03/27 05:46:02;;;;;;;;;;;4.10;91.30;;;;;;4999457;28;92189;-67
2021/03/27 05:48:27;;;;;;;;;;;4.10;91.30;;;;;;4967912;28;92302;-67
2021/03/27 05:51:11;;;;;;;;;;;4.10;91.30;;;;;;4999574;28;92485;-67
2021/03/27 05:53:56;;;;;;;;;;;4.10;91.30;;;;;;4995582;28;92152;-67
2021/03/27 05:56:24;;;;;;;;;;;4.00;91.30;;;;;;4999062;28;92274;-67
2021/03/27 05:58:55;;;;;;;;;;;4.00;91.20;;;;;;4995131;28;94204;-67
2021/03/27 06:01:25;;;;;;;;;;;4.10;91.30;;;;;;4996494;28;92215;-67
2021/03/27 06:04:10;;;;;;;;;;;4.00;91.30;;;;;;5001127;28;92508;-67
2021/03/27 06:07:14;;;;;;;;;;;4.00;91.30;;;;;;4999987;28;92240;-67
2021/03/27 06:09:40;;;;;;;;;;;4.00;91.20;;;;;;4996365;28;92329;-67
2021/03/27 06:12:23;;;;;;;;;;;4.00;91.30;;;;;;4997096;28;93706;-67
2021/03/27 06:14:49;;;;;;;;;;;4.00;91.40;;;;;;4994670;28;92335;-67
2021/03/27 06:17:14;;;;;;;;;;;4.00;91.30;;;;;;4995357;28;94344;-67
2021/03/27 06:19:43;;;;;;;;;;;4.10;91.40;;;;;;4993968;28;92303;-67
2021/03/27 06:22:23;;;;;;;;;;;4.00;91.30;;;;;;4996685;28;92175;-67
2021/03/27 06:24:52;;;;;;;;;;;4.00;91.40;;;;;;4994737;28;93142;-67
2021/03/27 06:27:47;;;;;;;;;;;4.00;91.30;;;;;;4999753;28;93274;-67
2021/03/27 06:30:22;;;;;;;;;;;4.00;91.40;;;;;;4998747;28;92183;-67
2021/03/27 06:33:06;;;;;;;;;;;4.00;91.40;;;;;;4997314;28;93128;-67
2021/03/27 06:35:40;;;;;;;;;;;4.00;91.40;;;;;;4997293;28;92194;-67
2021/03/27 06:38:24;;;;;;;;;;;4.00;91.40;;;;;;4997354;28;92593;-67
2021/03/27 06:41:05;;;;;;;;;;;4.00;91.40;;;;;;4996264;28;93181;-67
2021/03/27 06:43:49;;;;;;;;;;;4.00;91.40;;;;;;4998796;28;91474;-67
2021/03/27 06:46:15;;;;;;;;;;;4.00;91.30;;;;;;4994544;28;93051;-67
2021/03/27 06:48:43;;;;;;;;;;;4.00;91.30;;;;;;4995067;28;92729;-67
2021/03/27 06:51:20;;;;;;;;;;;4.00;91.40;;;;;;4999844;28;94858;-67
2021/03/27 06:53:48;;;;;;;;;;;4.00;91.40;;;;;;4998088;28;92777;-67
2021/03/27 06:56:14;;;;;;;;;;;4.00;91.40;;;;;;4994164;28;93233;-67
2021/03/27 06:59:01;;;;;;;;;;;4.00;91.40;;;;;;4995581;28;93562;-67
2021/03/27 07:01:36;;;;;;;;;;;4.00;91.40;;;;;;4996191;28;93215;-67
2021/03/27 07:04:20;;;;;;;;;;;4.00;91.40;;;;;;4995550;28;92227;-67
2021/03/27 07:06:45;;;;;;;;;;;4.00;91.40;;;;;;4998886;28;92881;-67
2021/03/27 07:09:30;;;;;;;;;;;4.00;91.40;;;;;;4995816;28;92360;-67
2021/03/27 07:12:14;;;;;;;;;;;4.00;91.50;;;;;;4996407;28;92328;-67
2021/03/27 07:15:09;;;;;;;;;;;4.00;91.40;;;;;;4999235;28;93028;-67
2021/03/27 07:17:35;;;;;;;;;;;4.00;91.70;;;;;;4993862;28;93590;-67
2021/03/27 07:20:19;;;;;;;;;;;4.00;91.40;;;;;;4994969;28;94656;-67
2021/03/27 07:22:51;;;;;;;;;;;4.00;91.40;;;;;;4997874;28;93011;-67
2021/03/27 07:25:16;;;;;;;;;;;4.00;91.40;;;;;;4998792;28;92275;-67
2021/03/27 07:27:42;;;;;;;;;;;4.00;91.50;;;;;;4995641;28;93021;-67
2021/03/27 07:30:19;;;;;;;;;;;4.00;91.50;;;;;;4993853;28;92754;-67
2021/03/27 07:32:47;;;;;;;;;;;4.00;91.50;;;;;;4995036;28;93669;-67
2021/03/27 07:35:22;;;;;;;;;;;4.10;91.50;;;;;;4998689;28;92188;-67
2021/03/27 07:38:06;;;;;;;;;;;4.10;91.50;;;;;;4995512;28;92205;-67
2021/03/27 07:40:31;;;;;;;;;;;4.00;91.50;;;;;;4998267;28;92236;-67
2021/03/27 07:42:57;;;;;;;;;;;4.00;91.60;;;;;;4994273;28;93515;-67
2021/03/27 07:45:38;;;;;;;;;;;4.10;91.60;;;;;;4993879;28;92213;-67
2021/03/27 07:48:03;;;;;;;;;;;4.10;91.60;;;;;;4994941;28;93376;-67
2021/03/27 07:50:49;;;;;;;;;;;4.10;91.50;;;;;;4995767;28;92152;-67
2021/03/27 07:53:33;;;;;;;;;;;4.10;91.50;;;;;;4997535;28;92162;-67
2021/03/27 07:56:17;;;;;;;;;;;4.10;91.50;;;;;;4994384;28;92494;-67
2021/03/27 07:58:56;;;;;;;;;;;4.10;91.60;;;;;;5000170;28;92583;-67
2021/03/27 08:01:35;;;;;;;;;;;4.10;91.60;;;;;;4994090;28;92614;-67
2021/03/27 08:04:07;;;;;;;;;;;4.10;91.60;;;;;;4992867;28;92209;-67
2021/03/27 08:06:40;;;;;;;;;;;4.10;91.60;;;;;;4996022;28;93701;-67
2021/03/27 08:09:24;;;;;;;;;;;4.10;91.60;;;;;;4995762;28;93094;-67
2021/03/27 08:11:52;;;;;;;;;;;4.10;91.60;;;;;;4993956;28;93838;-67
2021/03/27 08:14:23;;;;;;;;;;;4.10;91.60;;;;;;4994265;28;92239;-67
2021/03/27 08:17:04;;;;;;;;;;;4.20;91.70;;;;;;4993544;28;92687;-67
2021/03/27 08:19:35;;;;;;;;;;;4.20;91.70;;;;;;4994038;28;92793;-67
2021/03/27 08:22:09;;;;;;;;;;;4.20;91.70;;;;;;4998303;28;92235;-67
2021/03/27 08:24:38;;;;;;;;;;;4.20;91.70;;;;;;4994670;28;93199;-67
2021/03/27 08:27:07;;;;;;;;;;;4.20;91.70;;;;;;4996376;28;91467;-67
2021/03/27 08:29:42;;;;;;;;;;;4.20;91.70;;;;;;4996259;28;93497;-67
2021/03/27 08:32:07;;;;;;;;;;;4.20;91.70;;;;;;4993720;28;92602;-67
2021/03/27 08:34:52;;;;;;;;;;;4.20;91.70;;;;;;4994760;28;93134;-67
2021/03/27 08:37:36;;;;;;;;;;;4.20;91.70;;;;;;4994427;28;92840;-67
2021/03/27 08:40:13;;;;;;;;;;;4.20;91.70;;;;;;4994048;28;92706;-67
2021/03/27 08:42:48;;;;;;;;;;;4.20;91.80;;;;;;4996229;28;93031;-68
2021/03/27 08:45:13;;;;;;;;;;;4.20;91.70;;;;;;4995154;28;92660;-67
2021/03/27 08:47:59;;;;;;;;;;;4.30;91.80;;;;;;4994335;28;93264;-67
2021/03/27 08:50:28;;;;;;;;;;;4.30;92.00;;;;;;4995198;28;93314;-67
2021/03/27 08:52:56;;;;;;;;;;;4.30;91.80;;;;;;4993822;28;92094;-67
2021/03/27 08:55:30;;;;;;;;;;;4.30;91.80;;;;;;4995824;28;92816;-67
2021/03/27 08:58:14;;;;;;;;;;;4.30;91.80;;;;;;4992472;28;92471;-67
2021/03/27 09:00:58;;;;;;;;;;;4.30;91.80;;;;;;4993026;28;93686;-67
2021/03/27 09:03:26;;;;;;;;;;;4.40;91.80;;;;;;4995392;28;92218;-68
2021/03/27 09:06:12;;;;;;;;;;;4.40;91.80;;;;;;4995316;28;94051;-67
2021/03/27 09:08:43;;;;;;;;;;;4.40;91.80;;;;;;4994952;28;93517;-67
2021/03/27 09:11:28;;;;;;;;;;;4.40;91.80;;;;;;4992762;28;92421;-67
2021/03/27 09:14:20;;;;;;;;;;;4.40;91.80;;;;;;4995146;28;92755;-67
2021/03/27 09:16:55;;;;;;;;;;;4.40;91.80;;;;;;4994157;28;92216;-68
2021/03/27 09:19:26;;;;;;;;;;;4.40;91.80;;;;;;4996754;28;91494;-67
2021/03/27 09:21:55;;;;;;;;;;;4.50;91.80;;;;;;4996604;28;92479;-67
2021/03/27 09:24:30;;;;;;;;;;;4.50;91.80;;;;;;4993255;28;92212;-67
2021/03/27 09:27:14;;;;;;;;;;;4.50;91.80;;;;;;4993110;28;93121;-67
2021/03/27 09:29:58;;;;;;;;;;;4.50;91.80;;;;;;4996068;28;93149;-68
2021/03/27 09:32:23;;;;;;;;;;;4.60;91.80;;;;;;4996958;28;92154;-67
2021/03/27 09:35:07;;;;;;;;;;;4.50;91.80;;;;;;4994497;28;93028;-67
2021/03/27 09:37:39;;;;;;;;;;;4.50;91.80;;;;;;4994724;28;93459;-67
2021/03/27 09:40:04;;;;;;;;;;;4.60;91.90;;;;;;4994958;28;93653;-67
2021/03/27 09:42:39;;;;;;;;;;;4.60;91.80;;;;;;4991323;28;92894;-67
2021/03/27 09:45:15;;;;;;;;;;;4.60;91.80;;;;;;4993230;28;91515;-67
2021/03/27 09:47:50;;;;;;;;;;;4.60;91.80;;;;;;4995654;28;93204;-68
2021/03/27 09:50:18;;;;;;;;;;;4.70;91.90;;;;;;4996381;28;92954;-68
2021/03/27 09:52:46;;;;;;;;;;;4.70;91.90;;;;;;4996159;28;93098;-67
2021/03/27 09:55:23;;;;;;;;;;;4.70;91.80;;;;;;4992840;28;93418;-67
2021/03/27 09:57:56;;;;;;;;;;;4.70;91.90;;;;;;4993756;28;93493;-68
2021/03/27 10:00:45;;;;;;;;;;;4.70;91.90;;;;;;4997806;28;92502;-68
2021/03/27 10:03:16;;;;;;;;;;;4.80;91.80;;;;;;4986487;28;93217;-67
2021/03/27 10:06:00;;;;;;;;;;;4.80;91.90;;;;;;4995154;28;92223;-67
2021/03/27 10:08:30;;;;;;;;;;;4.80;91.90;;;;;;4998704;28;92198;-67
2021/03/27 10:11:00;;;;;;;;;;;4.80;91.90;;;;;;4998759;28;92453;-67
2021/03/27 10:13:43;;;;;;;;;;;4.80;91.90;;;;;;4998493;28;92183;-67
2021/03/27 10:16:15;;;;;;;;;;;4.90;91.90;;;;;;4998496;28;92717;-67
2021/03/27 10:18:50;;;;;;;;;;;4.90;91.90;;;;;;4994528;28;93221;-68
2021/03/27 10:21:15;;;;;;;;;;;4.90;91.80;;;;;;4997929;28;94681;-67
2021/03/27 10:24:01;;;;;;;;;;;4.90;91.90;;;;;;4998762;28;93388;-68
2021/03/27 10:26:30;;;;;;;;;;;4.90;91.80;;;;;;4965685;28;93115;-67
2021/03/27 10:28:59;;;;;;;;;;;4.90;91.80;;;;;;4996679;28;92494;-67
2021/03/27 10:31:35;;;;;;;;;;;5.00;91.90;;;;;;4998470;28;93886;-68
2021/03/27 10:34:23;;;;;;;;;;;5.00;91.80;;;;;;4999235;28;92230;-67
2021/03/27 10:36:53;;;;;;;;;;;5.00;91.90;;;;;;4994936;28;92354;-68
2021/03/27 10:39:25;;;;;;;;;;;5.00;91.90;;;;;;4997665;28;93080;-67
2021/03/27 10:41:59;;;;;;;;;;;5.10;91.80;;;;;;4995153;28;92470;-67
2021/03/27 10:44:33;;;;;;;;;;;5.10;91.90;;;;;;4996825;28;94249;-67
2021/03/27 10:47:10;;;;;;;;;;;5.10;91.80;;;;;;4994460;28;93289;-67
2021/03/27 10:49:39;;;;;;;;;;;5.20;91.80;;;;;;4995391;28;93764;-68
2021/03/27 10:52:27;;;;;;;;;;;5.20;91.90;;;;;;4996143;28;93232;-67
2021/03/27 10:55:11;;;;;;;;;;;5.20;91.80;;;;;;4994222;28;93478;-67
2021/03/27 10:57:56;;;;;;;;;;;5.20;91.80;;;;;;4997396;28;92220;-68
2021/03/27 11:00:24;;;;;;;;;;;5.20;91.90;;;;;;4993844;28;93224;-67
2021/03/27 11:02:55;;;;;;;;;;;5.30;91.90;;;;;;5001862;28;91476;-68
2021/03/27 11:05:23;;;;;;;;;;;5.30;91.90;;;;;;4996259;28;92212;-67
2021/03/27 11:08:07;;;;;;;;;;;5.30;91.90;;;;;;4999264;28;92211;-67
2021/03/27 11:10:38;;;;;;;;;;;5.40;91.90;;;;;;4992219;28;93174;-67
2021/03/27 11:13:04;;;;;;;;;;;5.40;91.90;;;;;;4998803;28;92214;-67
2021/03/27 11:15:51;;;;;;;;;;;5.40;91.80;;;;;;4995918;28;93817;-67
2021/03/27 11:18:35;;;;;;;;;;;5.40;91.90;;;;;;4997835;28;92189;-67
2021/03/27 11:21:08;;;;;;;;;;;5.40;91.90;;;;;;4993551;28;92698;-67
2021/03/27 11:23:36;;;;;;;;;;;5.50;91.90;;;;;;4995811;28;92997;-67
2021/03/27 11:26:14;;;;;;;;;;;5.50;91.90;;;;;;4999991;28;92213;-67
2021/03/27 11:28:51;;;;;;;;;;;5.50;91.90;;;;;;4996349;28;91509;-67
2021/03/27 11:31:33;;;;;;;;;;;5.50;91.80;;;;;;4994828;28;92248;-68
2021/03/27 11:34:08;;;;;;;;;;;5.60;91.90;;;;;;4993255;28;92257;-67
2021/03/27 11:36:53;;;;;;;;;;;5.60;91.90;;;;;;4994691;28;93115;-67
2021/03/27 11:39:34;;;;;;;;;;;5.60;91.90;;;;;;4996558;28;93537;-67
2021/03/27 11:42:04;;;;;;;;;;;5.60;91.90;;;;;;4997588;28;92798;-67
2021/03/27 11:44:42;;;;;;;;;;;5.60;91.90;;;;;;4994867;28;93650;-67
2021/03/27 11:47:26;;;;;;;;;;;5.70;91.80;;;;;;4998282;28;92553;-67
2021/03/27 11:49:56;;;;;;;;;;;5.70;91.80;;;;;;4997021;28;94605;-67
2021/03/27 11:52:25;;;;;;;;;;;5.70;91.90;;;;;;4996566;28;92232;-67
2021/03/27 11:55:01;;;;;;;;;;;5.80;91.80;;;;;;4995663;28;92463;-67
2021/03/27 11:57:33;;;;;;;;;;;5.80;91.80;;;;;;4993521;28;92289;-67
2021/03/27 12:02:48;;;;;;;;;;;5.80;91.90;;;;;;4992665;28;93891;-67
2021/03/27 12:05:17;;;;;;;;;;;5.90;91.90;;;;;;4994554;28;92260;-67
2021/03/27 12:08:01;;;;;;;;;;;5.90;91.90;;;;;;4996823;28;92533;-67
2021/03/27 12:10:45;;;;;;;;;;;5.90;91.90;;;;;;5000343;28;93198;-67
2021/03/27 12:13:10;;;;;;;;;;;5.90;91.90;;;;;;4994881;28;92366;-67
2021/03/27 12:15:51;;;;;;;;;;;6.00;91.90;;;;;;4995541;28;93315;-67
2021/03/27 12:18:35;;;;;;;;;;;6.00;91.90;;;;;;4997006;28;92235;-67
2021/03/27 12:21:14;;;;;;;;;;;6.00;91.90;;;;;;4994509;28;92521;-67
2021/03/27 12:23:44;;;;;;;;;;;6.00;91.90;;;;;;4996542;28;93472;-67
2021/03/27 12:26:10;;;;;;;;;;;6.10;91.90;;;;;;4994528;28;93800;-67
2021/03/27 12:28:48;;;;;;;;;;;6.10;91.90;;;;;;4993067;28;94457;-67
2021/03/27 12:31:13;;;;;;;;;;;6.10;91.90;;;;;;4996425;28;93497;-67
2021/03/27 12:33:39;;;;;;;;;;;6.20;91.90;;;;;;5000952;28;92948;-67
2021/03/27 12:36:04;;;;;;;;;;;6.20;91.80;;;;;;4996650;28;93123;-67
2021/03/27 12:38:49;;;;;;;;;;;6.20;91.90;;;;;;4996292;28;92235;-67
2021/03/27 12:41:20;;;;;;;;;;;6.20;91.90;;;;;;4997586;28;92250;-67
2021/03/27 12:43:47;;;;;;;;;;;6.30;92.00;;;;;;4995406;28;93318;-67
2021/03/27 12:46:25;;;;;;;;;;;6.30;91.90;;;;;;4992860;28;91444;-67
2021/03/27 12:49:07;;;;;;;;;;;6.30;91.90;;;;;;4997068;28;93084;-67
2021/03/27 12:51:54;;;;;;;;;;;6.30;91.90;;;;;;4995485;28;93295;-67
2021/03/27 12:54:22;;;;;;;;;;;6.30;91.90;;;;;;4994661;28;93172;-67
2021/03/27 12:56:57;;;;;;;;;;;6.40;91.90;;;;;;4995133;28;93795;-67
2021/03/27 12:59:28;;;;;;;;;;;6.40;91.90;;;;;;4994609;28;92210;-67
2021/03/27 13:02:25;;;;;;;;;;;6.40;91.90;;;;;;4993102;28;92202;-67
2021/03/27 13:05:09;;;;;;;;;;;6.50;91.90;;;;;;4961692;28;92568;-67
2021/03/27 13:07:38;;;;;;;;;;;6.50;91.90;;;;;;4997298;28;92183;-67
2021/03/27 13:10:06;;;;;;;;;;;6.50;91.90;;;;;;4993813;28;92489;-67
2021/03/27 13:12:42;;;;;;;;;;;6.60;92.00;;;;;;4995977;28;93124;-67
2021/03/27 13:15:24;;;;;;;;;;;6.50;92.00;;;;;;4996295;28;92907;-67
2021/03/27 13:18:10;;;;;;;;;;;6.60;92.00;;;;;;4996445;28;92458;-67
2021/03/27 13:20:46;;;;;;;;;;;6.60;91.90;;;;;;4985499;28;94474;-67
2021/03/27 13:23:12;;;;;;;;;;;6.70;92.00;;;;;;4993882;28;94068;-67
2021/03/27 13:25:49;;;;;;;;;;;6.70;92.00;;;;;;4992368;28;92749;-67
2021/03/27 13:28:35;;;;;;;;;;;6.70;92.00;;;;;;4994982;28;93220;-67
2021/03/27 13:31:14;;;;;;;;;;;6.80;91.90;;;;;;4993002;28;92264;-67
2021/03/27 13:33:57;;;;;;;;;;;6.80;92.00;;;;;;4994924;28;92445;-67
2021/03/27 13:36:34;;;;;;;;;;;6.80;91.90;;;;;;4996416;28;93632;-67
2021/03/27 13:39:18;;;;;;;;;;;6.90;91.90;;;;;;4998561;28;92072;-67
2021/03/27 13:42:02;;;;;;;;;;;7.00;92.20;;;;;;4999707;28;92708;-67
2021/03/27 13:44:40;;;;;;;;;;;7.00;91.90;;;;;;5000232;28;92264;-67
2021/03/27 13:47:27;;;;;;;;;;;7.00;91.90;;;;;;4994455;28;93752;-67
2021/03/27 13:49:52;;;;;;;;;;;7.10;91.90;;;;;;4999228;28;94291;-67
2021/03/27 13:52:27;;;;;;;;;;;7.10;92.10;;;;;;4995763;28;93936;-67
2021/03/27 13:54:59;;;;;;;;;;;7.20;92.00;;;;;;4996747;28;92351;-68
2021/03/27 13:57:26;;;;;;;;;;;7.20;92.10;;;;;;4996686;28;92174;-67
2021/03/27 14:00:10;;;;;;;;;;;7.20;92.40;;;;;;4997588;28;93100;-67
2021/03/27 14:02:36;;;;;;;;;;;7.30;92.30;;;;;;4996798;28;92698;-67
2021/03/27 14:05:05;;;;;;;;;;;7.40;92.40;;;;;;4999056;28;91510;-67
2021/03/27 14:07:37;;;;;;;;;;;7.30;92.10;;;;;;4998229;28;92226;-67
2021/03/27 14:10:06;;;;;;;;;;;7.40;92.50;;;;;;4995266;28;93271;-62
2021/03/27 14:12:35;;;;;;;;;;;7.90;87.40;;;;;;4996944;28;95435;-62
2021/03/27 14:15:01;;;;;;;;;;;7.90;90.50;;;;;;4998744;28;92864;-62
2021/03/27 14:17:36;;;;;;;;;;;7.80;90.90;;;;;;4998171;28;92738;-62
2021/03/27 14:20:04;;;;;;;;;;;7.80;91.50;;;;;;4995091;28;92255;-62
2021/03/27 14:22:48;;;;;;;;;;;7.70;91.60;;;;;;4997380;28;93208;-62
2021/03/27 14:25:21;;;;;;;;;;;7.70;92.00;;;;;;4999215;28;92170;-62
2021/03/27 14:27:50;;;;;;;;;;;7.70;92.20;;;;;;4997319;28;92173;-62
2021/03/27 14:30:34;;;;;;;;;;;7.70;92.20;;;;;;4997886;28;91458;-62
2021/03/27 14:33:05;;;;;;;;;;;7.70;92.30;;;;;;4995811;28;92900;-62
2021/03/27 14:35:49;;;;;;;;;;;7.80;92.40;;;;;;4995057;28;93118;-62
2021/03/27 14:38:33;;;;;;;;;;;7.80;92.30;;;;;;4996860;28;93189;-62
2021/03/27 14:40:59;;;;;;;;;;;7.80;92.50;;;;;;4996074;28;93345;-62
2021/03/27 14:43:36;;;;;;;;;;;7.90;92.50;;;;;;4994398;28;92989;-62
2021/03/27 14:46:12;;;;;;;;;;;8.00;92.40;;;;;;4996217;28;93788;-62
2021/03/27 14:48:45;;;;;;;;;;;8.00;92.40;;;;;;4994734;28;93422;-63
2021/03/27 14:51:29;;;;;;;;;;;8.00;92.50;;;;;;5000412;28;93259;-62
2021/03/27 14:53:57;;;;;;;;;;;8.00;92.60;;;;;;4994574;28;92518;-62
2021/03/27 14:56:29;;;;;;;;;;;8.10;92.50;;;;;;4996015;28;92714;-62
2021/03/27 14:59:15;;;;;;;;;;;8.10;92.60;;;;;;4997602;28;92205;-62
2021/03/27 15:01:50;;;;;;;;;;;8.20;92.50;;;;;;4995453;28;94026;-62
2021/03/27 15:04:21;;;;;;;;;;;8.20;92.70;;;;;;4995422;28;93647;-62
2021/03/27 15:06:50;;;;;;;;;;;8.30;92.70;;;;;;4997649;28;92176;-62
2021/03/27 15:09:15;;;;;;;;;;;8.30;92.60;;;;;;4994368;28;92614;-62
2021/03/27 15:11:52;;;;;;;;;;;8.30;92.70;;;;;;4994964;28;92713;-62
2021/03/27 15:14:17;;;;;;;;;;;8.30;92.90;;;;;;4998797;28;92198;-62
2021/03/27 15:17:01;;;;;;;;;;;8.40;92.90;;;;;;4996442;28;93356;-62
2021/03/27 15:19:45;;;;;;;;;;;8.40;92.70;;;;;;4995082;28;93436;-62
2021/03/27 15:22:23;;;;;;;;;;;8.40;92.70;;;;;;4997386;28;92945;-62